sensor_id;sensor_type;location;lat;lon;timestamp;P1;durP1;ratioP1;P2;durP2;ratioP2
20511;SDS011;10414;52.074;5.126;2022-10-22T00:01:08;9.43;;;3.15;;
20511;SDS011;10414;52.074;5.126;2022-10-22T00:03:35;8.07;;;3.25;;
20511;SDS011;10414;52.074;5.126;2022-10-22T00:06:02;8.65;;;3.45;;
20511;SDS011;10414;52.074;5.126;2022-10-22T00:08:30;11.07;;;3.50;;
20511;SDS011;10414;52.074;5.126;2022-10-22T00:10:58;11.63;;;4.10;;
20511;SDS011;10414;52.074;5.126;2022-10-22T00:13:25;8.70;;;4.38;;
20511;SDS011;10414;52.074;5.126;2022-10-22T00:15:52;9.38;;;4.05;;
20511;SDS011;10414;52.074;5.126;2022-10-22T00:18:19;10.40;;;3.97;;
20511;SDS011;10414;52.074;5.126;2022-10-22T00:20:45;11.32;;;3.63;;
20511;SDS011;10414;52.074;5.126;2022-10-22T00:23:12;9.50;;;3.95;;
20511;SDS011;10414;52.074;5.126;2022-10-22T00:25:40;6.82;;;3.92;;
20511;SDS011;10414;52.074;5.126;2022-10-22T00:28:07;11.13;;;4.45;;
20511;SDS011;10414;52.074;5.126;2022-10-22T00:30:35;9.65;;;4.07;;
20511;SDS011;10414;52.074;5.126;2022-10-22T00:33:02;7.68;;;3.80;;
20511;SDS011;10414;52.074;5.126;2022-10-22T00:35:29;9.13;;;3.88;;
20511;SDS011;10414;52.074;5.126;2022-10-22T00:37:56;9.50;;;4.25;;
20511;SDS011;10414;52.074;5.126;2022-10-22T00:40:22;10.70;;;3.88;;
20511;SDS011;10414;52.074;5.126;2022-10-22T00:42:51;10.93;;;4.10;;
20511;SDS011;10414;52.074;5.126;2022-10-22T00:45:19;9.48;;;3.75;;
20511;SDS011;10414;52.074;5.126;2022-10-22T00:47:49;11.03;;;4.50;;
20511;SDS011;10414;52.074;5.126;2022-10-22T00:50:21;9.38;;;3.55;;
20511;SDS011;10414;52.074;5.126;2022-10-22T00:52:51;12.70;;;4.50;;
20511;SDS011;10414;52.074;5.126;2022-10-22T00:55:20;9.45;;;4.05;;
20511;SDS011;10414;52.074;5.126;2022-10-22T00:57:50;9.43;;;4.80;;
20511;SDS011;10414;52.074;5.126;2022-10-22T01:00:19;8.27;;;4.43;;
20511;SDS011;10414;52.074;5.126;2022-10-22T01:02:46;9.75;;;4.45;;
20511;SDS011;10414;52.074;5.126;2022-10-22T01:05:14;11.00;;;4.78;;
20511;SDS011;10414;52.074;5.126;2022-10-22T01:07:44;11.70;;;5.15;;
20511;SDS011;10414;52.074;5.126;2022-10-22T01:10:19;13.52;;;4.82;;
20511;SDS011;10414;52.074;5.126;2022-10-22T01:13:04;10.45;;;4.75;;
20511;SDS011;10414;52.074;5.126;2022-10-22T01:15:41;10.00;;;4.82;;
20511;SDS011;10414;52.074;5.126;2022-10-22T01:18:14;9.93;;;4.95;;
20511;SDS011;10414;52.074;5.126;2022-10-22T01:20:50;11.40;;;4.25;;
20511;SDS011;10414;52.074;5.126;2022-10-22T01:23:52;10.57;;;4.57;;
20511;SDS011;10414;52.074;5.126;2022-10-22T01:26:53;12.98;;;4.43;;
20511;SDS011;10414;52.074;5.126;2022-10-22T01:29:29;9.95;;;4.35;;
20511;SDS011;10414;52.074;5.126;2022-10-22T01:32:04;13.52;;;4.50;;
20511;SDS011;10414;52.074;5.126;2022-10-22T01:34:34;11.23;;;4.20;;
20511;SDS011;10414;52.074;5.126;2022-10-22T01:37:05;13.90;;;4.30;;
20511;SDS011;10414;52.074;5.126;2022-10-22T01:39:34;10.10;;;3.83;;
20511;SDS011;10414;52.074;5.126;2022-10-22T01:42:03;8.88;;;4.28;;
20511;SDS011;10414;52.074;5.126;2022-10-22T01:44:32;9.40;;;4.13;;
20511;SDS011;10414;52.074;5.126;2022-10-22T01:47:02;16.05;;;4.40;;
20511;SDS011;10414;52.074;5.126;2022-10-22T01:49:43;13.70;;;4.13;;
20511;SDS011;10414;52.074;5.126;2022-10-22T01:52:34;9.98;;;4.00;;
20511;SDS011;10414;52.074;5.126;2022-10-22T01:55:13;9.57;;;4.10;;
20511;SDS011;10414;52.074;5.126;2022-10-22T01:57:52;17.00;;;4.20;;
20511;SDS011;10414;52.074;5.126;2022-10-22T02:00:33;9.10;;;3.72;;
20511;SDS011;10414;52.074;5.126;2022-10-22T02:03:05;13.75;;;4.47;;
20511;SDS011;10414;52.074;5.126;2022-10-22T02:05:36;13.40;;;3.78;;
20511;SDS011;10414;52.074;5.126;2022-10-22T02:08:08;10.30;;;4.00;;
20511;SDS011;10414;52.074;5.126;2022-10-22T02:10:37;7.20;;;3.55;;
20511;SDS011;10414;52.074;5.126;2022-10-22T02:13:06;10.98;;;3.88;;
20511;SDS011;10414;52.074;5.126;2022-10-22T02:15:38;9.52;;;3.50;;
20511;SDS011;10414;52.074;5.126;2022-10-22T02:18:08;6.72;;;3.38;;
20511;SDS011;10414;52.074;5.126;2022-10-22T02:20:37;9.57;;;3.60;;
20511;SDS011;10414;52.074;5.126;2022-10-22T02:23:06;13.07;;;3.60;;
20511;SDS011;10414;52.074;5.126;2022-10-22T02:25:35;10.40;;;4.00;;
20511;SDS011;10414;52.074;5.126;2022-10-22T02:28:07;12.68;;;3.92;;
20511;SDS011;10414;52.074;5.126;2022-10-22T02:30:40;10.77;;;3.80;;
20511;SDS011;10414;52.074;5.126;2022-10-22T02:33:12;13.50;;;4.45;;
20511;SDS011;10414;52.074;5.126;2022-10-22T02:35:43;10.77;;;3.85;;
20511;SDS011;10414;52.074;5.126;2022-10-22T02:38:11;10.95;;;4.22;;
20511;SDS011;10414;52.074;5.126;2022-10-22T02:40:39;9.32;;;4.05;;
20511;SDS011;10414;52.074;5.126;2022-10-22T02:43:06;10.73;;;3.90;;
20511;SDS011;10414;52.074;5.126;2022-10-22T02:45:33;11.30;;;4.15;;
20511;SDS011;10414;52.074;5.126;2022-10-22T02:48:02;10.95;;;4.18;;
20511;SDS011;10414;52.074;5.126;2022-10-22T02:50:30;14.93;;;4.50;;
20511;SDS011;10414;52.074;5.126;2022-10-22T02:52:57;13.05;;;4.85;;
20511;SDS011;10414;52.074;5.126;2022-10-22T02:55:23;14.50;;;4.57;;
20511;SDS011;10414;52.074;5.126;2022-10-22T02:57:50;12.70;;;4.13;;
20511;SDS011;10414;52.074;5.126;2022-10-22T03:00:17;12.52;;;4.10;;
20511;SDS011;10414;52.074;5.126;2022-10-22T03:02:44;14.48;;;4.30;;
20511;SDS011;10414;52.074;5.126;2022-10-22T03:05:12;11.77;;;4.25;;
20511;SDS011;10414;52.074;5.126;2022-10-22T03:07:39;11.18;;;4.00;;
20511;SDS011;10414;52.074;5.126;2022-10-22T03:10:06;10.82;;;4.45;;
20511;SDS011;10414;52.074;5.126;2022-10-22T03:12:34;10.30;;;4.30;;
20511;SDS011;10414;52.074;5.126;2022-10-22T03:15:01;16.75;;;4.55;;
20511;SDS011;10414;52.074;5.126;2022-10-22T03:17:28;12.15;;;4.55;;
20511;SDS011;10414;52.074;5.126;2022-10-22T03:19:54;9.65;;;4.00;;
20511;SDS011;10414;52.074;5.126;2022-10-22T03:22:24;14.07;;;4.55;;
20511;SDS011;10414;52.074;5.126;2022-10-22T03:24:53;13.27;;;4.50;;
20511;SDS011;10414;52.074;5.126;2022-10-22T03:27:23;13.90;;;4.82;;
20511;SDS011;10414;52.074;5.126;2022-10-22T03:29:52;15.45;;;4.97;;
20511;SDS011;10414;52.074;5.126;2022-10-22T03:32:19;12.55;;;4.70;;
20511;SDS011;10414;52.074;5.126;2022-10-22T03:34:46;12.63;;;4.55;;
20511;SDS011;10414;52.074;5.126;2022-10-22T03:37:13;16.30;;;4.90;;
20511;SDS011;10414;52.074;5.126;2022-10-22T03:39:41;13.10;;;4.88;;
20511;SDS011;10414;52.074;5.126;2022-10-22T03:42:09;14.93;;;5.43;;
20511;SDS011;10414;52.074;5.126;2022-10-22T03:44:37;19.00;;;5.22;;
20511;SDS011;10414;52.074;5.126;2022-10-22T03:47:05;14.50;;;4.75;;
20511;SDS011;10414;52.074;5.126;2022-10-22T03:49:32;17.10;;;4.75;;
20511;SDS011;10414;52.074;5.126;2022-10-22T03:52:03;9.52;;;4.28;;
20511;SDS011;10414;52.074;5.126;2022-10-22T03:54:31;9.18;;;4.70;;
20511;SDS011;10414;52.074;5.126;2022-10-22T03:56:59;8.85;;;4.60;;
20511;SDS011;10414;52.074;5.126;2022-10-22T03:59:26;11.55;;;4.38;;
20511;SDS011;10414;52.074;5.126;2022-10-22T04:01:53;11.85;;;4.97;;
20511;SDS011;10414;52.074;5.126;2022-10-22T04:04:20;22.48;;;4.47;;
20511;SDS011;10414;52.074;5.126;2022-10-22T04:06:47;13.68;;;4.80;;
20511;SDS011;10414;52.074;5.126;2022-10-22T04:09:14;12.38;;;4.60;;
20511;SDS011;10414;52.074;5.126;2022-10-22T04:11:41;12.15;;;4.40;;
20511;SDS011;10414;52.074;5.126;2022-10-22T04:14:10;12.98;;;5.22;;
20511;SDS011;10414;52.074;5.126;2022-10-22T04:16:37;10.10;;;4.90;;
20511;SDS011;10414;52.074;5.126;2022-10-22T04:19:05;16.33;;;4.60;;
20511;SDS011;10414;52.074;5.126;2022-10-22T04:21:32;11.20;;;4.35;;
20511;SDS011;10414;52.074;5.126;2022-10-22T04:24:00;10.77;;;4.28;;
20511;SDS011;10414;52.074;5.126;2022-10-22T04:26:27;12.75;;;4.15;;
20511;SDS011;10414;52.074;5.126;2022-10-22T04:28:54;13.32;;;5.05;;
20511;SDS011;10414;52.074;5.126;2022-10-22T04:31:23;10.32;;;4.65;;
20511;SDS011;10414;52.074;5.126;2022-10-22T04:33:51;12.80;;;4.65;;
20511;SDS011;10414;52.074;5.126;2022-10-22T04:36:19;11.70;;;4.25;;
20511;SDS011;10414;52.074;5.126;2022-10-22T04:38:46;12.68;;;3.85;;
20511;SDS011;10414;52.074;5.126;2022-10-22T04:41:19;13.32;;;3.70;;
20511;SDS011;10414;52.074;5.126;2022-10-22T04:43:47;13.32;;;4.25;;
20511;SDS011;10414;52.074;5.126;2022-10-22T04:46:15;9.63;;;3.92;;
20511;SDS011;10414;52.074;5.126;2022-10-22T04:48:44;11.77;;;4.30;;
20511;SDS011;10414;52.074;5.126;2022-10-22T04:51:12;15.40;;;3.75;;
20511;SDS011;10414;52.074;5.126;2022-10-22T04:53:41;9.77;;;3.80;;
20511;SDS011;10414;52.074;5.126;2022-10-22T04:56:09;11.95;;;3.95;;
20511;SDS011;10414;52.074;5.126;2022-10-22T04:58:37;14.80;;;3.60;;
20511;SDS011;10414;52.074;5.126;2022-10-22T05:01:08;9.70;;;3.50;;
20511;SDS011;10414;52.074;5.126;2022-10-22T05:03:36;10.13;;;3.65;;
20511;SDS011;10414;52.074;5.126;2022-10-22T05:06:05;13.73;;;3.90;;
20511;SDS011;10414;52.074;5.126;2022-10-22T05:08:33;12.57;;;3.50;;
20511;SDS011;10414;52.074;5.126;2022-10-22T05:11:00;11.18;;;3.70;;
20511;SDS011;10414;52.074;5.126;2022-10-22T05:13:27;11.25;;;3.90;;
20511;SDS011;10414;52.074;5.126;2022-10-22T05:15:54;14.93;;;3.90;;
20511;SDS011;10414;52.074;5.126;2022-10-22T05:18:21;9.02;;;3.53;;
20511;SDS011;10414;52.074;5.126;2022-10-22T05:20:48;13.98;;;4.00;;
20511;SDS011;10414;52.074;5.126;2022-10-22T05:23:16;14.80;;;3.42;;
20511;SDS011;10414;52.074;5.126;2022-10-22T05:25:43;10.23;;;3.50;;
20511;SDS011;10414;52.074;5.126;2022-10-22T05:28:10;12.07;;;3.60;;
20511;SDS011;10414;52.074;5.126;2022-10-22T05:30:37;12.82;;;4.00;;
20511;SDS011;10414;52.074;5.126;2022-10-22T05:33:04;8.35;;;3.63;;
20511;SDS011;10414;52.074;5.126;2022-10-22T05:35:31;12.63;;;3.85;;
20511;SDS011;10414;52.074;5.126;2022-10-22T05:37:57;14.75;;;4.18;;
20511;SDS011;10414;52.074;5.126;2022-10-22T05:40:26;15.57;;;3.58;;
20511;SDS011;10414;52.074;5.126;2022-10-22T05:42:53;12.30;;;3.40;;
20511;SDS011;10414;52.074;5.126;2022-10-22T05:45:19;10.18;;;3.40;;
20511;SDS011;10414;52.074;5.126;2022-10-22T05:47:46;9.70;;;3.80;;
20511;SDS011;10414;52.074;5.126;2022-10-22T05:50:13;12.05;;;3.50;;
20511;SDS011;10414;52.074;5.126;2022-10-22T05:52:40;13.15;;;3.85;;
20511;SDS011;10414;52.074;5.126;2022-10-22T05:55:07;11.00;;;3.85;;
20511;SDS011;10414;52.074;5.126;2022-10-22T05:57:35;10.88;;;3.70;;
20511;SDS011;10414;52.074;5.126;2022-10-22T06:00:02;12.00;;;4.10;;
20511;SDS011;10414;52.074;5.126;2022-10-22T06:02:30;12.05;;;3.70;;
20511;SDS011;10414;52.074;5.126;2022-10-22T06:04:56;9.82;;;3.28;;
20511;SDS011;10414;52.074;5.126;2022-10-22T06:07:24;15.48;;;4.10;;
20511;SDS011;10414;52.074;5.126;2022-10-22T06:09:51;11.07;;;3.63;;
20511;SDS011;10414;52.074;5.126;2022-10-22T06:12:18;14.30;;;3.67;;
20511;SDS011;10414;52.074;5.126;2022-10-22T06:14:46;11.88;;;4.03;;
20511;SDS011;10414;52.074;5.126;2022-10-22T06:17:13;16.35;;;4.32;;
20511;SDS011;10414;52.074;5.126;2022-10-22T06:19:40;13.77;;;3.83;;
20511;SDS011;10414;52.074;5.126;2022-10-22T06:22:07;13.48;;;4.00;;
20511;SDS011;10414;52.074;5.126;2022-10-22T06:24:34;13.52;;;3.95;;
20511;SDS011;10414;52.074;5.126;2022-10-22T06:27:01;12.80;;;4.10;;
20511;SDS011;10414;52.074;5.126;2022-10-22T06:29:28;16.83;;;4.03;;
20511;SDS011;10414;52.074;5.126;2022-10-22T06:31:56;13.38;;;3.88;;
20511;SDS011;10414;52.074;5.126;2022-10-22T06:34:23;12.20;;;3.10;;
20511;SDS011;10414;52.074;5.126;2022-10-22T06:36:50;12.27;;;3.72;;
20511;SDS011;10414;52.074;5.126;2022-10-22T06:39:17;13.73;;;3.60;;
20511;SDS011;10414;52.074;5.126;2022-10-22T06:41:44;13.57;;;3.60;;
20511;SDS011;10414;52.074;5.126;2022-10-22T06:44:12;8.88;;;3.05;;
20511;SDS011;10414;52.074;5.126;2022-10-22T06:46:40;16.85;;;3.80;;
20511;SDS011;10414;52.074;5.126;2022-10-22T06:49:10;10.30;;;3.80;;
20511;SDS011;10414;52.074;5.126;2022-10-22T06:51:38;11.25;;;3.13;;
20511;SDS011;10414;52.074;5.126;2022-10-22T06:54:05;16.02;;;3.53;;
20511;SDS011;10414;52.074;5.126;2022-10-22T06:56:32;8.75;;;2.85;;
20511;SDS011;10414;52.074;5.126;2022-10-22T06:58:59;10.07;;;3.30;;
20511;SDS011;10414;52.074;5.126;2022-10-22T07:01:27;10.93;;;3.22;;
20511;SDS011;10414;52.074;5.126;2022-10-22T07:03:55;12.60;;;3.38;;
20511;SDS011;10414;52.074;5.126;2022-10-22T07:06:24;13.65;;;3.65;;
20511;SDS011;10414;52.074;5.126;2022-10-22T07:08:52;10.35;;;3.15;;
20511;SDS011;10414;52.074;5.126;2022-10-22T07:11:20;9.70;;;2.92;;
20511;SDS011;10414;52.074;5.126;2022-10-22T07:13:49;8.15;;;2.95;;
20511;SDS011;10414;52.074;5.126;2022-10-22T07:16:16;19.25;;;3.35;;
20511;SDS011;10414;52.074;5.126;2022-10-22T07:18:43;14.98;;;2.90;;
20511;SDS011;10414;52.074;5.126;2022-10-22T07:21:11;8.23;;;2.15;;
20511;SDS011;10414;52.074;5.126;2022-10-22T07:23:40;10.00;;;2.13;;
20511;SDS011;10414;52.074;5.126;2022-10-22T07:26:07;11.18;;;2.58;;
20511;SDS011;10414;52.074;5.126;2022-10-22T07:28:36;10.60;;;2.55;;
20511;SDS011;10414;52.074;5.126;2022-10-22T07:31:05;12.23;;;2.70;;
20511;SDS011;10414;52.074;5.126;2022-10-22T07:33:32;8.05;;;2.33;;
20511;SDS011;10414;52.074;5.126;2022-10-22T07:36:01;12.43;;;2.75;;
20511;SDS011;10414;52.074;5.126;2022-10-22T07:38:29;10.10;;;2.53;;
20511;SDS011;10414;52.074;5.126;2022-10-22T07:40:58;9.75;;;2.08;;
20511;SDS011;10414;52.074;5.126;2022-10-22T07:43:25;11.10;;;2.17;;
20511;SDS011;10414;52.074;5.126;2022-10-22T07:45:52;9.40;;;2.47;;
20511;SDS011;10414;52.074;5.126;2022-10-22T07:48:20;10.88;;;2.60;;
20511;SDS011;10414;52.074;5.126;2022-10-22T07:50:47;9.25;;;2.28;;
20511;SDS011;10414;52.074;5.126;2022-10-22T07:53:15;9.82;;;2.10;;
20511;SDS011;10414;52.074;5.126;2022-10-22T07:55:42;14.60;;;2.53;;
20511;SDS011;10414;52.074;5.126;2022-10-22T07:58:10;13.45;;;2.70;;
20511;SDS011;10414;52.074;5.126;2022-10-22T08:00:37;14.13;;;2.72;;
20511;SDS011;10414;52.074;5.126;2022-10-22T08:03:03;13.13;;;2.40;;
20511;SDS011;10414;52.074;5.126;2022-10-22T08:05:30;10.98;;;2.42;;
20511;SDS011;10414;52.074;5.126;2022-10-22T08:07:57;11.48;;;2.85;;
20511;SDS011;10414;52.074;5.126;2022-10-22T08:10:24;9.07;;;1.98;;
20511;SDS011;10414;52.074;5.126;2022-10-22T08:12:51;11.65;;;2.08;;
20511;SDS011;10414;52.074;5.126;2022-10-22T08:15:19;8.23;;;2.42;;
20511;SDS011;10414;52.074;5.126;2022-10-22T08:17:47;13.32;;;2.40;;
20511;SDS011;10414;52.074;5.126;2022-10-22T08:20:14;11.98;;;2.80;;
20511;SDS011;10414;52.074;5.126;2022-10-22T08:22:41;11.00;;;2.75;;
20511;SDS011;10414;52.074;5.126;2022-10-22T08:25:08;11.55;;;2.25;;
20511;SDS011;10414;52.074;5.126;2022-10-22T08:27:36;11.60;;;2.90;;
20511;SDS011;10414;52.074;5.126;2022-10-22T08:30:04;11.68;;;2.42;;
20511;SDS011;10414;52.074;5.126;2022-10-22T08:32:33;11.27;;;2.30;;
20511;SDS011;10414;52.074;5.126;2022-10-22T08:35:00;9.73;;;2.25;;
20511;SDS011;10414;52.074;5.126;2022-10-22T08:37:27;9.50;;;2.28;;
20511;SDS011;10414;52.074;5.126;2022-10-22T08:39:54;9.52;;;2.40;;
20511;SDS011;10414;52.074;5.126;2022-10-22T08:42:27;10.35;;;2.30;;
20511;SDS011;10414;52.074;5.126;2022-10-22T08:45:14;10.60;;;2.42;;
20511;SDS011;10414;52.074;5.126;2022-10-22T08:47:51;10.93;;;2.55;;
20511;SDS011;10414;52.074;5.126;2022-10-22T08:50:36;11.43;;;2.50;;
20511;SDS011;10414;52.074;5.126;2022-10-22T08:55:38;7.50;;;2.53;;
20511;SDS011;10414;52.074;5.126;2022-10-22T08:58:07;9.65;;;2.22;;
20511;SDS011;10414;52.074;5.126;2022-10-22T09:00:45;8.48;;;2.13;;
20511;SDS011;10414;52.074;5.126;2022-10-22T09:03:30;9.15;;;2.35;;
20511;SDS011;10414;52.074;5.126;2022-10-22T09:06:06;12.85;;;2.38;;
20511;SDS011;10414;52.074;5.126;2022-10-22T09:08:37;11.60;;;2.50;;
20511;SDS011;10414;52.074;5.126;2022-10-22T09:11:06;13.60;;;2.45;;
20511;SDS011;10414;52.074;5.126;2022-10-22T09:13:41;12.88;;;2.30;;
20511;SDS011;10414;52.074;5.126;2022-10-22T09:16:13;10.25;;;2.55;;
20511;SDS011;10414;52.074;5.126;2022-10-22T09:18:45;7.75;;;2.08;;
20511;SDS011;10414;52.074;5.126;2022-10-22T09:21:23;9.35;;;1.92;;
20511;SDS011;10414;52.074;5.126;2022-10-22T09:23:59;7.90;;;2.15;;
20511;SDS011;10414;52.074;5.126;2022-10-22T09:26:30;8.57;;;2.17;;
20511;SDS011;10414;52.074;5.126;2022-10-22T09:29:02;10.00;;;2.72;;
20511;SDS011;10414;52.074;5.126;2022-10-22T09:31:29;11.07;;;2.00;;
20511;SDS011;10414;52.074;5.126;2022-10-22T09:33:59;9.95;;;2.08;;
20511;SDS011;10414;52.074;5.126;2022-10-22T09:36:31;7.53;;;2.10;;
20511;SDS011;10414;52.074;5.126;2022-10-22T09:38:59;11.63;;;1.80;;
20511;SDS011;10414;52.074;5.126;2022-10-22T09:41:28;10.10;;;2.20;;
20511;SDS011;10414;52.074;5.126;2022-10-22T09:43:56;7.20;;;2.00;;
20511;SDS011;10414;52.074;5.126;2022-10-22T09:46:24;9.82;;;1.90;;
20511;SDS011;10414;52.074;5.126;2022-10-22T09:48:59;11.32;;;1.85;;
20511;SDS011;10414;52.074;5.126;2022-10-22T09:51:35;8.43;;;1.83;;
20511;SDS011;10414;52.074;5.126;2022-10-22T09:54:12;5.95;;;1.63;;
20511;SDS011;10414;52.074;5.126;2022-10-22T09:56:42;11.93;;;2.10;;
20511;SDS011;10414;52.074;5.126;2022-10-22T09:59:15;8.23;;;1.67;;
20511;SDS011;10414;52.074;5.126;2022-10-22T10:01:43;12.45;;;2.45;;
20511;SDS011;10414;52.074;5.126;2022-10-22T10:04:12;10.70;;;2.30;;
20511;SDS011;10414;52.074;5.126;2022-10-22T10:06:41;10.00;;;2.08;;
20511;SDS011;10414;52.074;5.126;2022-10-22T10:09:12;11.07;;;2.15;;
20511;SDS011;10414;52.074;5.126;2022-10-22T10:11:42;9.15;;;1.92;;
20511;SDS011;10414;52.074;5.126;2022-10-22T10:14:14;8.80;;;1.65;;
20511;SDS011;10414;52.074;5.126;2022-10-22T10:16:49;9.25;;;1.90;;
20511;SDS011;10414;52.074;5.126;2022-10-22T10:22:19;8.55;;;1.83;;
20511;SDS011;10414;52.074;5.126;2022-10-22T10:25:10;9.70;;;2.45;;
20511;SDS011;10414;52.074;5.126;2022-10-22T10:27:49;10.88;;;1.77;;
20511;SDS011;10414;52.074;5.126;2022-10-22T10:30:24;8.85;;;1.90;;
20511;SDS011;10414;52.074;5.126;2022-10-22T10:32:59;6.97;;;1.85;;
20511;SDS011;10414;52.074;5.126;2022-10-22T10:35:38;9.70;;;1.90;;
20511;SDS011;10414;52.074;5.126;2022-10-22T10:38:20;10.57;;;2.28;;
20511;SDS011;10414;52.074;5.126;2022-10-22T10:41:04;8.13;;;1.92;;
20511;SDS011;10414;52.074;5.126;2022-10-22T10:43:40;10.13;;;1.88;;
20511;SDS011;10414;52.074;5.126;2022-10-22T10:46:16;11.82;;;1.95;;
20511;SDS011;10414;52.074;5.126;2022-10-22T10:48:50;13.02;;;2.47;;
20511;SDS011;10414;52.074;5.126;2022-10-22T10:51:35;9.63;;;1.73;;
20511;SDS011;10414;52.074;5.126;2022-10-22T10:57:01;10.80;;;1.80;;
20511;SDS011;10414;52.074;5.126;2022-10-22T10:59:38;10.65;;;1.48;;
20511;SDS011;10414;52.074;5.126;2022-10-22T11:02:23;10.63;;;1.52;;
20511;SDS011;10414;52.074;5.126;2022-10-22T11:05:19;10.20;;;1.80;;
20511;SDS011;10414;52.074;5.126;2022-10-22T11:07:55;6.70;;;1.35;;
20511;SDS011;10414;52.074;5.126;2022-10-22T11:10:27;10.73;;;1.77;;
20511;SDS011;10414;52.074;5.126;2022-10-22T11:12:56;10.80;;;1.52;;
20511;SDS011;10414;52.074;5.126;2022-10-22T11:15:29;12.02;;;1.67;;
20511;SDS011;10414;52.074;5.126;2022-10-22T11:20:33;7.85;;;1.60;;
20511;SDS011;10414;52.074;5.126;2022-10-22T11:23:10;10.60;;;1.50;;
20511;SDS011;10414;52.074;5.126;2022-10-22T11:25:42;12.35;;;2.38;;
20511;SDS011;10414;52.074;5.126;2022-10-22T11:28:13;9.32;;;1.63;;
20511;SDS011;10414;52.074;5.126;2022-10-22T11:30:44;9.55;;;2.17;;
20511;SDS011;10414;52.074;5.126;2022-10-22T11:33:14;10.32;;;2.22;;
20511;SDS011;10414;52.074;5.126;2022-10-22T11:35:44;9.88;;;1.60;;
20511;SDS011;10414;52.074;5.126;2022-10-22T11:38:15;14.55;;;2.17;;
20511;SDS011;10414;52.074;5.126;2022-10-22T11:40:44;11.20;;;2.17;;
20511;SDS011;10414;52.074;5.126;2022-10-22T11:43:24;10.98;;;1.90;;
20511;SDS011;10414;52.074;5.126;2022-10-22T11:45:56;12.00;;;2.00;;
20511;SDS011;10414;52.074;5.126;2022-10-22T11:48:27;7.50;;;1.73;;
20511;SDS011;10414;52.074;5.126;2022-10-22T11:51:00;11.80;;;1.80;;
20511;SDS011;10414;52.074;5.126;2022-10-22T11:53:31;14.65;;;2.15;;
20511;SDS011;10414;52.074;5.126;2022-10-22T11:56:02;14.85;;;1.85;;
20511;SDS011;10414;52.074;5.126;2022-10-22T11:58:47;10.48;;;2.03;;
20511;SDS011;10414;52.074;5.126;2022-10-22T12:01:21;15.32;;;2.03;;
20511;SDS011;10414;52.074;5.126;2022-10-22T12:03:50;14.10;;;2.38;;
20511;SDS011;10414;52.074;5.126;2022-10-22T12:06:20;12.80;;;2.13;;
20511;SDS011;10414;52.074;5.126;2022-10-22T12:08:55;11.10;;;2.57;;
20511;SDS011;10414;52.074;5.126;2022-10-22T12:11:27;12.50;;;1.92;;
20511;SDS011;10414;52.074;5.126;2022-10-22T12:14:02;14.15;;;2.10;;
20511;SDS011;10414;52.074;5.126;2022-10-22T12:16:44;14.73;;;2.22;;
20511;SDS011;10414;52.074;5.126;2022-10-22T12:19:15;11.30;;;2.20;;
20511;SDS011;10414;52.074;5.126;2022-10-22T12:21:46;11.07;;;1.88;;
20511;SDS011;10414;52.074;5.126;2022-10-22T12:24:18;12.85;;;2.40;;
20511;SDS011;10414;52.074;5.126;2022-10-22T12:26:47;11.52;;;2.38;;
20511;SDS011;10414;52.074;5.126;2022-10-22T12:29:17;13.10;;;1.80;;
20511;SDS011;10414;52.074;5.126;2022-10-22T12:31:47;9.13;;;2.10;;
20511;SDS011;10414;52.074;5.126;2022-10-22T12:34:15;14.07;;;2.10;;
20511;SDS011;10414;52.074;5.126;2022-10-22T12:36:47;14.25;;;2.17;;
20511;SDS011;10414;52.074;5.126;2022-10-22T12:39:17;13.73;;;2.20;;
20511;SDS011;10414;52.074;5.126;2022-10-22T12:41:53;13.40;;;2.45;;
20511;SDS011;10414;52.074;5.126;2022-10-22T12:44:20;12.50;;;1.88;;
20511;SDS011;10414;52.074;5.126;2022-10-22T12:46:48;14.65;;;2.15;;
20511;SDS011;10414;52.074;5.126;2022-10-22T12:49:16;13.15;;;2.40;;
20511;SDS011;10414;52.074;5.126;2022-10-22T12:51:45;10.10;;;1.90;;
20511;SDS011;10414;52.074;5.126;2022-10-22T12:54:15;16.52;;;2.50;;
20511;SDS011;10414;52.074;5.126;2022-10-22T12:56:49;11.63;;;2.30;;
20511;SDS011;10414;52.074;5.126;2022-10-22T12:59:19;16.50;;;2.55;;
20511;SDS011;10414;52.074;5.126;2022-10-22T13:01:48;12.10;;;2.13;;
20511;SDS011;10414;52.074;5.126;2022-10-22T13:04:21;10.70;;;2.65;;
20511;SDS011;10414;52.074;5.126;2022-10-22T13:07:04;9.88;;;2.47;;
20511;SDS011;10414;52.074;5.126;2022-10-22T13:09:43;12.43;;;2.78;;
20511;SDS011;10414;52.074;5.126;2022-10-22T13:12:12;13.68;;;2.28;;
20511;SDS011;10414;52.074;5.126;2022-10-22T13:14:40;14.63;;;2.50;;
20511;SDS011;10414;52.074;5.126;2022-10-22T13:17:09;13.93;;;2.53;;
20511;SDS011;10414;52.074;5.126;2022-10-22T13:19:40;16.77;;;2.42;;
20511;SDS011;10414;52.074;5.126;2022-10-22T13:22:24;12.93;;;2.80;;
20511;SDS011;10414;52.074;5.126;2022-10-22T13:24:55;10.60;;;2.45;;
20511;SDS011;10414;52.074;5.126;2022-10-22T13:27:24;9.27;;;2.50;;
20511;SDS011;10414;52.074;5.126;2022-10-22T13:29:51;12.23;;;2.80;;
20511;SDS011;10414;52.074;5.126;2022-10-22T13:32:25;15.05;;;2.72;;
20511;SDS011;10414;52.074;5.126;2022-10-22T13:34:55;21.55;;;2.80;;
20511;SDS011;10414;52.074;5.126;2022-10-22T13:37:23;13.77;;;2.83;;
20511;SDS011;10414;52.074;5.126;2022-10-22T13:39:51;13.48;;;2.88;;
20511;SDS011;10414;52.074;5.126;2022-10-22T13:42:19;11.30;;;2.92;;
20511;SDS011;10414;52.074;5.126;2022-10-22T13:44:46;13.82;;;3.00;;
20511;SDS011;10414;52.074;5.126;2022-10-22T13:47:16;15.07;;;3.45;;
20511;SDS011;10414;52.074;5.126;2022-10-22T13:49:49;10.48;;;2.60;;
20511;SDS011;10414;52.074;5.126;2022-10-22T13:52:25;12.88;;;2.42;;
20511;SDS011;10414;52.074;5.126;2022-10-22T13:55:00;17.77;;;3.05;;
20511;SDS011;10414;52.074;5.126;2022-10-22T13:57:28;14.68;;;3.10;;
20511;SDS011;10414;52.074;5.126;2022-10-22T13:59:55;13.68;;;2.80;;
20511;SDS011;10414;52.074;5.126;2022-10-22T14:02:21;11.45;;;2.40;;
20511;SDS011;10414;52.074;5.126;2022-10-22T14:04:48;12.90;;;2.72;;
20511;SDS011;10414;52.074;5.126;2022-10-22T14:07:16;14.02;;;2.63;;
20511;SDS011;10414;52.074;5.126;2022-10-22T14:09:43;13.25;;;2.63;;
20511;SDS011;10414;52.074;5.126;2022-10-22T14:12:11;11.80;;;2.10;;
20511;SDS011;10414;52.074;5.126;2022-10-22T14:14:40;17.48;;;2.78;;
20511;SDS011;10414;52.074;5.126;2022-10-22T14:17:08;17.80;;;2.75;;
20511;SDS011;10414;52.074;5.126;2022-10-22T14:19:40;14.63;;;2.38;;
20511;SDS011;10414;52.074;5.126;2022-10-22T14:22:09;11.55;;;2.20;;
20511;SDS011;10414;52.074;5.126;2022-10-22T14:24:39;18.75;;;2.53;;
20511;SDS011;10414;52.074;5.126;2022-10-22T14:27:07;12.05;;;2.30;;
20511;SDS011;10414;52.074;5.126;2022-10-22T14:29:36;12.05;;;3.30;;
20511;SDS011;10414;52.074;5.126;2022-10-22T14:32:13;9.00;;;1.83;;
20511;SDS011;10414;52.074;5.126;2022-10-22T14:34:43;12.70;;;2.38;;
20511;SDS011;10414;52.074;5.126;2022-10-22T14:37:15;10.02;;;2.22;;
20511;SDS011;10414;52.074;5.126;2022-10-22T14:39:43;10.23;;;2.17;;
20511;SDS011;10414;52.074;5.126;2022-10-22T14:42:16;13.00;;;2.53;;
20511;SDS011;10414;52.074;5.126;2022-10-22T14:44:43;13.50;;;2.20;;
20511;SDS011;10414;52.074;5.126;2022-10-22T14:47:10;12.90;;;2.40;;
20511;SDS011;10414;52.074;5.126;2022-10-22T14:49:39;12.75;;;2.30;;
20511;SDS011;10414;52.074;5.126;2022-10-22T14:52:06;10.77;;;1.83;;
20511;SDS011;10414;52.074;5.126;2022-10-22T14:54:33;16.80;;;2.63;;
20511;SDS011;10414;52.074;5.126;2022-10-22T14:57:00;13.88;;;2.22;;
20511;SDS011;10414;52.074;5.126;2022-10-22T14:59:28;11.35;;;2.75;;
20511;SDS011;10414;52.074;5.126;2022-10-22T15:01:55;14.20;;;2.38;;
20511;SDS011;10414;52.074;5.126;2022-10-22T15:04:24;13.85;;;2.20;;
20511;SDS011;10414;52.074;5.126;2022-10-22T15:06:52;13.48;;;2.30;;